PWSweather.com
Personal Weather Stations
Station Observations
DELHOVEN
DormagenDE 41540

DormagenDE 41540

Lat: 51.083, Lon: 6.775

Elevation: 120

Station Type: WH1080

Latest ConditionsUpdated 5:56:59 AM GMT+01:01 Thursday, Jun 30, 2016
Currently Today's Max Today's Min Today's Average
Temperature 60.3°F15.7°C 63.5°F17.5°C 60.3°F15.7°C 61.3°F16.3°C
Dew Point 58.2°F14.6°C 58.6°F14.8°C 56.9°F13.8°C 57.9°F14.4°C
Winds 2.2 mph SW3.5 kmh SW 4.5 mph SW7.2 kmh SW - 2.5 mph 4.0 kmh
Wind Gusts 3.1 mph5.0 kmh 9.2 mph14.8 kmh - -
Humidity 93% 93% 79% 89%
Pressure 29.94 in1013.9 mb 29.95 in1014.2 mb 29.92 in1013.2 mb -
Precipitation - 0.05 in1.3 mm - -
Hour Temp Dew Point Humidity Winds Wind Gusts Pressure Precip Precip Rate Daily Precip Total
05:56 AM 60.3°F15.7°C 58.2°F14.6°C 93% 2.2 mph SW3.5 kmh SW 3.1 mph5.0 kmh 29.94 in1013.9 mb 0.01 in0.3 mm 0.00 in0.0 mm 0.05 in1.3 mm
05:51 AM 60.3°F15.7°C 58.2°F14.6°C 93% 3.1 mph SSW5.0 kmh SSW 5.4 mph8.7 kmh 29.95 in1014.2 mb 0.01 in0.3 mm 0.00 in0.0 mm 0.05 in1.3 mm
05:46 AM 60.3°F15.7°C 58.2°F14.6°C 93% 3.1 mph S5.0 kmh S 5.4 mph8.7 kmh 29.94 in1013.9 mb 0.01 in0.3 mm 0.00 in0.0 mm 0.05 in1.3 mm
05:41 AM 60.3°F15.7°C 58.2°F14.6°C 93% 4.5 mph SW7.2 kmh SW 6.0 mph9.7 kmh 29.94 in1013.9 mb 0.01 in0.3 mm 0.00 in0.0 mm 0.05 in1.3 mm
05:36 AM 60.3°F15.7°C 58.2°F14.6°C 93% 2.2 mph W3.5 kmh W 5.4 mph8.7 kmh 29.95 in1014.2 mb 0.01 in0.3 mm 0.00 in0.0 mm 0.05 in1.3 mm
05:31 AM 60.3°F15.7°C 58.2°F14.6°C 93% 3.1 mph W5.0 kmh W 4.5 mph7.2 kmh 29.95 in1014.2 mb 0.01 in0.3 mm 0.00 in0.0 mm 0.05 in1.3 mm
05:26 AM 60.3°F15.7°C 58.2°F14.6°C 93% 3.1 mph S5.0 kmh S 5.4 mph8.7 kmh 29.94 in1013.9 mb 0.01 in0.3 mm 0.00 in0.0 mm 0.05 in1.3 mm
05:21 AM 60.4°F15.8°C 58.4°F14.7°C 93% 2.2 mph WSW3.5 kmh WSW 3.8 mph6.1 kmh 29.94 in1013.9 mb 0.01 in0.3 mm 0.00 in0.0 mm 0.05 in1.3 mm
05:16 AM 60.4°F15.8°C 58.4°F14.7°C 93% 1.6 mph SW2.6 kmh SW 4.5 mph7.2 kmh 29.94 in1013.9 mb 0.01 in0.3 mm 0.12 in3.0 mm 0.05 in1.3 mm
05:11 AM 60.6°F15.9°C 58.6°F14.8°C 93% 3.8 mph S6.1 kmh S 9.2 mph14.8 kmh 29.94 in1013.9 mb 0.00 in0.0 mm 0.00 in0.0 mm 0.04 in1.0 mm
05:06 AM 60.6°F15.9°C 58.6°F14.8°C 93% 2.2 mph S3.5 kmh S 3.1 mph5.0 kmh 29.94 in1013.9 mb 0.00 in0.0 mm 0.00 in0.0 mm 0.04 in1.0 mm
05:01 AM 60.6°F15.9°C 58.6°F14.8°C 93% 2.2 mph S3.5 kmh S 3.1 mph5.0 kmh 29.94 in1013.9 mb 0.00 in0.0 mm 0.00 in0.0 mm 0.04 in1.0 mm
04:56 AM 60.6°F15.9°C 58.6°F14.8°C 93% 1.6 mph S2.6 kmh S 2.2 mph3.5 kmh 29.94 in1013.9 mb 0.00 in0.0 mm 0.00 in0.0 mm 0.04 in1.0 mm
04:51 AM 60.6°F15.9°C 58.3°F14.6°C 92% 1.6 mph S2.6 kmh S 3.1 mph5.0 kmh 29.94 in1013.9 mb 0.00 in0.0 mm 0.00 in0.0 mm 0.04 in1.0 mm
04:46 AM 60.4°F15.8°C 58.1°F14.5°C 92% 1.6 mph S2.6 kmh S 2.2 mph3.5 kmh 29.93 in1013.5 mb 0.01 in0.3 mm 0.00 in0.0 mm 0.04 in1.0 mm
04:41 AM 60.4°F15.8°C 58.1°F14.5°C 92% 0.7 mph S1.1 kmh S 2.2 mph3.5 kmh 29.93 in1013.5 mb 0.01 in0.3 mm 0.12 in3.0 mm 0.04 in1.0 mm
04:36 AM 60.4°F15.8°C 58.1°F14.5°C 92% 0.7 mph S1.1 kmh S 2.2 mph3.5 kmh 29.93 in1013.5 mb 0.00 in0.0 mm 0.00 in0.0 mm 0.04 in1.0 mm
04:31 AM 60.4°F15.8°C 58.1°F14.5°C 92% 0.7 mph SE1.1 kmh SE 2.2 mph3.5 kmh 29.93 in1013.5 mb 0.00 in0.0 mm 0.00 in0.0 mm 0.04 in1.0 mm
04:26 AM 60.4°F15.8°C 58.1°F14.5°C 92% 3.1 mph S5.0 kmh S 4.5 mph7.2 kmh 29.93 in1013.5 mb 0.00 in0.0 mm 0.00 in0.0 mm 0.04 in1.0 mm
04:21 AM 60.4°F15.8°C 58.1°F14.5°C 92% 3.1 mph S5.0 kmh S 4.5 mph7.2 kmh 29.93 in1013.5 mb 0.01 in0.3 mm 0.00 in0.0 mm 0.04 in1.0 mm
04:16 AM 60.4°F15.8°C 58.1°F14.5°C 92% 3.8 mph SW6.1 kmh SW 5.4 mph8.7 kmh 29.93 in1013.5 mb 0.01 in0.3 mm 0.00 in0.0 mm 0.04 in1.0 mm
04:11 AM 60.4°F15.8°C 58.1°F14.5°C 92% 2.2 mph SW3.5 kmh SW 4.5 mph7.2 kmh 29.93 in1013.5 mb 0.01 in0.3 mm 0.00 in0.0 mm 0.04 in1.0 mm
04:06 AM 60.6°F15.9°C 58.0°F14.4°C 91% 3.1 mph S5.0 kmh S 5.4 mph8.7 kmh 29.93 in1013.5 mb 0.01 in0.3 mm 0.00 in0.0 mm 0.04 in1.0 mm
04:01 AM 60.6°F15.9°C 58.0°F14.4°C 91% 4.5 mph S7.2 kmh S 7.6 mph12.2 kmh 29.93 in1013.5 mb 0.01 in0.3 mm 0.00 in0.0 mm 0.04 in1.0 mm
03:56 AM 60.6°F15.9°C 58.0°F14.4°C 91% 1.6 mph S2.6 kmh S 3.1 mph5.0 kmh 29.93 in1013.5 mb 0.01 in0.3 mm 0.00 in0.0 mm 0.04 in1.0 mm
03:51 AM 60.8°F16.0°C 57.8°F14.3°C 90% 3.8 mph W6.1 kmh W 6.0 mph9.7 kmh 29.93 in1013.5 mb 0.01 in0.3 mm 0.00 in0.0 mm 0.04 in1.0 mm
03:46 AM 60.8°F16.0°C 57.8°F14.3°C 90% 3.1 mph SSW5.0 kmh SSW 5.4 mph8.7 kmh 29.93 in1013.5 mb 0.01 in0.3 mm 0.00 in0.0 mm 0.04 in1.0 mm
03:41 AM 60.8°F16.0°C 57.8°F14.3°C 90% 3.8 mph S6.1 kmh S 6.0 mph9.7 kmh 29.93 in1013.5 mb 0.01 in0.3 mm 0.00 in0.0 mm 0.03 in0.8 mm
03:36 AM 61.0°F16.1°C 58.0°F14.4°C 90% 3.8 mph S6.1 kmh S 5.4 mph8.7 kmh 29.93 in1013.5 mb 0.01 in0.3 mm 0.00 in0.0 mm 0.03 in0.8 mm
03:31 AM 61.0°F16.1°C 58.0°F14.4°C 90% 3.1 mph S5.0 kmh S 5.4 mph8.7 kmh 29.93 in1013.5 mb 0.01 in0.3 mm 0.00 in0.0 mm 0.03 in0.8 mm
03:26 AM 61.0°F16.1°C 58.0°F14.4°C 90% 3.1 mph S5.0 kmh S 5.4 mph8.7 kmh 29.93 in1013.5 mb 0.01 in0.3 mm 0.00 in0.0 mm 0.03 in0.8 mm
03:21 AM 61.2°F16.2°C 58.2°F14.6°C 90% 2.2 mph SW3.5 kmh SW 3.8 mph6.1 kmh 29.93 in1013.5 mb 0.01 in0.3 mm 0.12 in3.0 mm 0.03 in0.8 mm
03:16 AM 61.2°F16.2°C 58.2°F14.6°C 90% 3.8 mph W6.1 kmh W 5.4 mph8.7 kmh 29.93 in1013.5 mb 0.00 in0.0 mm 0.00 in0.0 mm 0.03 in0.8 mm
03:11 AM 61.2°F16.2°C 58.2°F14.6°C 90% 4.5 mph SW7.2 kmh SW 6.0 mph9.7 kmh 29.93 in1013.5 mb 0.00 in0.0 mm 0.00 in0.0 mm 0.03 in0.8 mm
03:06 AM 61.2°F16.2°C 58.2°F14.6°C 90% 3.1 mph SW5.0 kmh SW 5.4 mph8.7 kmh 29.93 in1013.5 mb 0.00 in0.0 mm 0.00 in0.0 mm 0.03 in0.8 mm
03:01 AM 61.2°F16.2°C 58.2°F14.6°C 90% 3.1 mph SW5.0 kmh SW 5.4 mph8.7 kmh 29.93 in1013.5 mb 0.00 in0.0 mm 0.00 in0.0 mm 0.03 in0.8 mm
02:56 AM 61.2°F16.2°C 58.2°F14.6°C 90% 3.1 mph SW5.0 kmh SW 5.4 mph8.7 kmh 29.93 in1013.5 mb 0.00 in0.0 mm 0.00 in0.0 mm 0.03 in0.8 mm
02:51 AM 61.2°F16.2°C 58.2°F14.6°C 90% 3.1 mph W5.0 kmh W 4.5 mph7.2 kmh 29.93 in1013.5 mb 0.00 in0.0 mm 0.00 in0.0 mm 0.03 in0.8 mm
02:46 AM 61.2°F16.2°C 58.2°F14.6°C 90% 3.1 mph S5.0 kmh S 6.9 mph11.1 kmh 29.93 in1013.5 mb 0.00 in0.0 mm 0.00 in0.0 mm 0.03 in0.8 mm
02:41 AM 61.2°F16.2°C 58.2°F14.6°C 90% 3.1 mph SW5.0 kmh SW 4.5 mph7.2 kmh 29.93 in1013.5 mb 0.00 in0.0 mm 0.00 in0.0 mm 0.03 in0.8 mm
02:36 AM 61.2°F16.2°C 58.2°F14.6°C 90% 4.5 mph SW7.2 kmh SW 6.9 mph11.1 kmh 29.93 in1013.5 mb 0.00 in0.0 mm 0.00 in0.0 mm 0.02 in0.5 mm
02:31 AM 61.2°F16.2°C 58.2°F14.6°C 90% 3.1 mph WSW5.0 kmh WSW 3.8 mph6.1 kmh 29.92 in1013.2 mb 0.00 in0.0 mm 0.00 in0.0 mm 0.02 in0.5 mm
02:26 AM 61.2°F16.2°C 58.2°F14.6°C 90% 2.2 mph SE3.5 kmh SE 3.8 mph6.1 kmh 29.93 in1013.5 mb 0.00 in0.0 mm 0.00 in0.0 mm 0.02 in0.5 mm
02:21 AM 61.3°F16.3°C 58.1°F14.5°C 89% 3.1 mph SW5.0 kmh SW 5.4 mph8.7 kmh 29.93 in1013.5 mb 0.00 in0.0 mm 0.00 in0.0 mm 0.02 in0.5 mm
02:16 AM 61.3°F16.3°C 58.1°F14.5°C 89% 3.8 mph SE6.1 kmh SE 6.0 mph9.7 kmh 29.93 in1013.5 mb 0.00 in0.0 mm 0.00 in0.0 mm 0.02 in0.5 mm
02:11 AM 61.3°F16.3°C 58.1°F14.5°C 89% 3.1 mph S5.0 kmh S 4.5 mph7.2 kmh 29.93 in1013.5 mb 0.00 in0.0 mm 0.00 in0.0 mm 0.02 in0.5 mm
02:06 AM 61.3°F16.3°C 58.1°F14.5°C 89% 3.1 mph S5.0 kmh S 3.8 mph6.1 kmh 29.93 in1013.5 mb 0.00 in0.0 mm 0.00 in0.0 mm 0.02 in0.5 mm
02:01 AM 61.3°F16.3°C 57.8°F14.3°C 88% 2.2 mph S3.5 kmh S 4.5 mph7.2 kmh 29.93 in1013.5 mb 0.00 in0.0 mm 0.00 in0.0 mm 0.02 in0.5 mm
01:56 AM 61.3°F16.3°C 57.8°F14.3°C 88% 3.1 mph S5.0 kmh S 3.8 mph6.1 kmh 29.93 in1013.5 mb 0.00 in0.0 mm 0.00 in0.0 mm 0.02 in0.5 mm
01:51 AM 61.3°F16.3°C 57.8°F14.3°C 88% 2.2 mph SW3.5 kmh SW 3.8 mph6.1 kmh 29.93 in1013.5 mb 0.00 in0.0 mm 0.00 in0.0 mm 0.02 in0.5 mm
01:46 AM 61.3°F16.3°C 57.8°F14.3°C 88% 3.1 mph S5.0 kmh S 6.0 mph9.7 kmh 29.93 in1013.5 mb 0.00 in0.0 mm 0.00 in0.0 mm 0.02 in0.5 mm
01:41 AM 61.3°F16.3°C 57.4°F14.1°C 87% 3.1 mph S5.0 kmh S 3.8 mph6.1 kmh 29.93 in1013.5 mb 0.00 in0.0 mm 0.00 in0.0 mm 0.02 in0.5 mm
01:36 AM 61.5°F16.4°C 57.6°F14.2°C 87% 2.2 mph S3.5 kmh S 3.8 mph6.1 kmh 29.93 in1013.5 mb 0.00 in0.0 mm 0.00 in0.0 mm 0.02 in0.5 mm
01:31 AM 61.5°F16.4°C 57.6°F14.2°C 87% Calm Calm 1.6 mph2.6 kmh 29.93 in1013.5 mb 0.00 in0.0 mm 0.00 in0.0 mm 0.02 in0.5 mm
01:26 AM 61.7°F16.5°C 57.8°F14.3°C 87% 2.2 mph SSW3.5 kmh SSW 3.8 mph6.1 kmh 29.93 in1013.5 mb 0.01 in0.3 mm 0.00 in0.0 mm 0.02 in0.5 mm
01:21 AM 61.7°F16.5°C 57.8°F14.3°C 87% 2.2 mph S3.5 kmh S 3.1 mph5.0 kmh 29.93 in1013.5 mb 0.01 in0.3 mm 0.00 in0.0 mm 0.02 in0.5 mm
01:16 AM 61.9°F16.6°C 57.6°F14.2°C 86% 3.1 mph SW5.0 kmh SW 4.5 mph7.2 kmh 29.93 in1013.5 mb 0.01 in0.3 mm 0.00 in0.0 mm 0.02 in0.5 mm
01:11 AM 61.9°F16.6°C 57.6°F14.2°C 86% 3.1 mph S5.0 kmh S 4.5 mph7.2 kmh 29.93 in1013.5 mb 0.01 in0.3 mm 0.00 in0.0 mm 0.02 in0.5 mm
01:06 AM 62.2°F16.8°C 57.7°F14.3°C 85% 1.6 mph SW2.6 kmh SW 2.2 mph3.5 kmh 29.93 in1013.5 mb 0.01 in0.3 mm 0.00 in0.0 mm 0.02 in0.5 mm
01:01 AM 62.2°F16.8°C 57.7°F14.3°C 85% 1.6 mph SW2.6 kmh SW 2.2 mph3.5 kmh 29.93 in1013.5 mb 0.02 in0.5 mm 0.00 in0.0 mm 0.02 in0.5 mm
12:56 AM 62.2°F16.8°C 57.7°F14.3°C 85% 3.1 mph S5.0 kmh S 3.8 mph6.1 kmh 29.93 in1013.5 mb 0.02 in0.5 mm 0.12 in3.0 mm 0.02 in0.5 mm
12:51 AM 62.2°F16.8°C 57.7°F14.3°C 85% 2.2 mph E3.5 kmh E 3.1 mph5.0 kmh 29.93 in1013.5 mb 0.01 in0.3 mm 0.00 in0.0 mm 0.02 in0.5 mm
12:46 AM 62.4°F16.9°C 57.5°F14.2°C 84% 2.2 mph S3.5 kmh S 3.8 mph6.1 kmh 29.93 in1013.5 mb 0.02 in0.5 mm 0.00 in0.0 mm 0.02 in0.5 mm
12:41 AM 62.4°F16.9°C 57.5°F14.2°C 84% Calm Calm -- 29.93 in1013.5 mb 0.02 in0.5 mm 0.00 in0.0 mm 0.02 in0.5 mm
12:36 AM 62.6°F17.0°C 57.4°F14.1°C 83% 3.1 mph SE5.0 kmh SE 3.8 mph6.1 kmh 29.93 in1013.5 mb 0.02 in0.5 mm 0.00 in0.0 mm 0.02 in0.5 mm
12:31 AM 62.6°F17.0°C 57.0°F13.9°C 82% Calm Calm 1.6 mph2.6 kmh 29.93 in1013.5 mb 0.02 in0.5 mm 0.00 in0.0 mm 0.02 in0.5 mm
12:26 AM 62.8°F17.1°C 57.2°F14.0°C 82% 0.7 mph S1.1 kmh S 1.6 mph2.6 kmh 29.94 in1013.9 mb 0.02 in0.5 mm 0.12 in3.0 mm 0.02 in0.5 mm
12:21 AM 63.0°F17.2°C 57.0°F13.9°C 81% 0.7 mph SSW1.1 kmh SSW 2.2 mph3.5 kmh 29.94 in1013.9 mb 0.01 in0.3 mm 0.00 in0.0 mm 0.01 in0.3 mm
12:16 AM 63.0°F17.2°C 57.0°F13.9°C 81% 2.2 mph S3.5 kmh S 3.1 mph5.0 kmh 29.94 in1013.9 mb 0.01 in0.3 mm 0.00 in0.0 mm 0.01 in0.3 mm
12:11 AM 63.1°F17.3°C 57.2°F14.0°C 81% 1.6 mph SW2.6 kmh SW 3.8 mph6.1 kmh 29.94 in1013.9 mb 0.01 in0.3 mm 0.00 in0.0 mm 0.01 in0.3 mm
12:06 AM 63.3°F17.4°C 57.0°F13.9°C 80% 0.7 mph S1.1 kmh S 2.2 mph3.5 kmh 29.95 in1014.2 mb 0.01 in0.3 mm 0.00 in0.0 mm 0.01 in0.3 mm
12:01 AM 63.5°F17.5°C 56.9°F13.8°C 79% 1.6 mph SW2.6 kmh SW 3.1 mph5.0 kmh 29.94 in1013.9 mb 0.01 in0.3 mm 0.60 in15.2 mm 0.01 in0.3 mm